地図

経路データ

SID SEASON NUMBER BASIN SUBBASIN NAME ISO_TIME NATURE LAT LON WMO_WIND WMO_PRES WMO_AGENCY TRACK_TYPE DIST2LAND LANDFALL IFLAG USA_AGENCY USA_ATCF_ID USA_LAT USA_LON USA_RECORD USA_STATUS USA_WIND USA_PRES USA_SSHS USA_R34_NE USA_R34_SE USA_R34_SW USA_R34_NW USA_R50_NE USA_R50_SE USA_R50_SW USA_R50_NW USA_R64_NE USA_R64_SE USA_R64_SW USA_R64_NW USA_POCI USA_ROCI USA_RMW USA_EYE TOKYO_LAT TOKYO_LON TOKYO_GRADE TOKYO_WIND TOKYO_PRES TOKYO_R50_DIR TOKYO_R50_LONG TOKYO_R50_SHORT TOKYO_R30_DIR TOKYO_R30_LONG TOKYO_R30_SHORT TOKYO_LAND CMA_LAT CMA_LON CMA_CAT CMA_WIND CMA_PRES HKO_LAT HKO_LON HKO_CAT HKO_WIND HKO_PRES NEWDELHI_LAT NEWDELHI_LON NEWDELHI_GRADE NEWDELHI_WIND NEWDELHI_PRES NEWDELHI_CI NEWDELHI_DP NEWDELHI_POCI REUNION_LAT REUNION_LON REUNION_TYPE REUNION_WIND REUNION_PRES REUNION_TNUM REUNION_CI REUNION_RMW REUNION_R34_NE REUNION_R34_SE REUNION_R34_SW REUNION_R34_NW REUNION_R50_NE REUNION_R50_SE REUNION_R50_SW REUNION_R50_NW REUNION_R64_NE REUNION_R64_SE REUNION_R64_SW REUNION_R64_NW BOM_LAT BOM_LON BOM_TYPE BOM_WIND BOM_PRES BOM_TNUM BOM_CI BOM_RMW BOM_R34_NE BOM_R34_SE BOM_R34_SW BOM_R34_NW BOM_R50_NE BOM_R50_SE BOM_R50_SW BOM_R50_NW BOM_R64_NE BOM_R64_SE BOM_R64_SW BOM_R64_NW BOM_ROCI BOM_POCI BOM_EYE BOM_POS_METHOD BOM_PRES_METHOD NADI_LAT NADI_LON NADI_CAT NADI_WIND NADI_PRES WELLINGTON_LAT WELLINGTON_LON WELLINGTON_WIND WELLINGTON_PRES DS824_LAT DS824_LON DS824_STAGE DS824_WIND DS824_PRES TD9636_LAT TD9636_LON TD9636_STAGE TD9636_WIND TD9636_PRES TD9635_LAT TD9635_LON TD9635_WIND TD9635_PRES TD9635_ROCI NEUMANN_LAT NEUMANN_LON NEUMANN_CLASS NEUMANN_WIND NEUMANN_PRES MLC_LAT MLC_LON MLC_CLASS MLC_WIND MLC_PRES USA_GUST BOM_GUST BOM_GUST_PER REUNION_GUST REUNION_GUST_PER USA_SEAHGT USA_SEARAD_NE USA_SEARAD_SE USA_SEARAD_SW USA_SEARAD_NW STORM_SPEED STORM_DIR
1972039S13068 1972 12 SI MM EUGENIE 1972-02-07 18:00:00 TS -12.8000 68.1000 main 1376 1358 O________OO___ jtwc_sh SH171972 -12.8000 68.1000 -1 -12.8000 68.1000 TC -12.8000 68.1000 7 6 283
1972039S13068 1972 12 SI MM EUGENIE 1972-02-07 21:00:00 TS -12.7348 67.8040 main 1358 1333 P________PP___ SH171972 -12.7201 67.7899 -1 -12.7201 67.7899 TC -12.7642 67.8322 7 6 278
1972039S13068 1972 12 SI MM EUGENIE 1972-02-08 00:00:00 TS -12.7209 67.5205 main 1333 1309 O________OP___ jtwc_sh SH171972 -12.7000 67.5000 -1 -12.7000 67.5000 TC -12.7626 67.5616 7 5 263
1972039S13068 1972 12 SI MM EUGENIE 1972-02-08 03:00:00 TS -12.8032 67.2567 main 1309 1269 P________PP___ SH171972 -12.7900 67.2425 -1 -12.7900 67.2425 TC -12.8297 67.2853 7 6 241
1972039S13068 1972 12 SI MM EUGENIE 1972-02-08 06:00:00 TS -13.0000 67.0000 main 1269 1231 O________OO___ jtwc_sh SH171972 -13.0000 67.0000 -1 -13.0000 67.0000 TC 25 -13.0000 67.0000 1 7 225
1972039S13068 1972 12 SI MM EUGENIE 1972-02-08 09:00:00 TS -13.3107 66.7357 main 1223 1178 P________PP___ SH171972 -13.3200 66.7500 -1 -13.3200 66.7500 TC 25 -13.2923 66.7070 1 9 217
1972039S13068 1972 12 SI MM EUGENIE 1972-02-08 12:00:00 TS -13.6875 66.4753 main 1178 1132 O________OP___ jtwc_sh SH171972 -13.7000 66.5000 -1 -13.7000 66.5000 TC 25 -13.6626 66.4260 1 9 214
1972039S13068 1972 12 SI MM EUGENIE 1972-02-08 15:00:00 TS -14.0656 66.2074 main 1125 1087 P________PP___ SH171972 -14.0725 66.2201 -1 -14.0725 66.2201 TC 25 -14.0517 66.1819 1 9 213
1972039S13068 1972 12 SI MM EUGENIE 1972-02-08 18:00:00 TS -14.4000 66.0000 main 1087 1065 O________OO___ jtwc_sh SH171972 -14.4000 66.0000 -1 -14.4000 66.0000 TC 25 -14.4000 66.0000 1 6 206
1972039S13068 1972 12 SI MM EUGENIE 1972-02-08 21:00:00 TS -14.6338 65.9156 main 1065 1052 P________PP___ SH171972 -14.6299 65.9124 -1 -14.6299 65.9124 TC 25 -14.6414 65.9220 1 4 194
1972039S13068 1972 12 SI MM EUGENIE 1972-02-09 00:00:00 TS -14.8108 65.9015 main 1052 1039 O________OP___ jtwc_sh SH171972 -14.8000 65.9000 -1 -14.8000 65.9000 TC 25 -14.8323 65.9044 1 3 185
1972039S13068 1972 12 SI MM EUGENIE 1972-02-09 03:00:00 TS -14.9707 65.9082 main 1039 1033 P________PP___ SH171972 -14.9650 65.9075 -1 -14.9650 65.9075 TC 25 -14.9820 65.9096 1 3 0
1972039S13068 1972 12 SI MM EUGENIE 1972-02-09 06:00:00 TS -15.1000 65.9000 main 1033 1018 O________OO___ jtwc_sh SH171972 -15.1000 65.9000 -1 -15.1000 65.9000 TC 25 -15.1000 65.9000 1 3 199
1972039S13068 1972 12 SI MM EUGENIE 1972-02-09 09:00:00 TS -15.2153 65.8159 main 1018 1003 P________PP___ SH171972 -15.2150 65.8150 -1 -15.2150 65.8150 TC 25 -15.2160 65.8175 1 3 224
1972039S13068 1972 12 SI MM EUGENIE 1972-02-09 12:00:00 TS -15.3008 65.7050 main 1003 987 O________OP___ jtwc_sh SH171972 -15.3000 65.7000 -1 -15.3000 65.7000 TC 25 -15.3025 65.7151 1 3 236
1972039S13068 1972 12 SI MM EUGENIE 1972-02-09 15:00:00 TS -15.3593 65.5967 main 987 979 P________PP___ SH171972 -15.3575 65.5925 -1 -15.3575 65.5925 TC 25 -15.3628 65.6050 1 2 243
1972039S13068 1972 12 SI MM EUGENIE 1972-02-09 18:00:00 TS -15.4000 65.5000 main 979 972 O________OO___ jtwc_sh SH171972 -15.4000 65.5000 -1 -15.4000 65.5000 TC 25 -15.4000 65.5000 1 2 234
1972039S13068 1972 12 SI MM EUGENIE 1972-02-09 21:00:00 TS -15.4613 65.4542 main 972 963 P________PP___ SH171972 -15.4650 65.4500 -1 -15.4650 65.4500 TC 25 -15.4538 65.4627 1 1 224
1972039S13068 1972 12 SI MM EUGENIE 1972-02-10 00:00:00 TS -15.4940 65.4085 main 963 954 O________OP___ jtwc_sh SH171972 -15.5000 65.4000 -1 -15.5000 65.4000 TC 25 -15.4821 65.4254 1 1 260
1972039S13068 1972 12 SI MM EUGENIE 1972-02-10 03:00:00 TS -15.4814 65.3368 main 954 954 P________PP___ SH171972 -15.4875 65.3301 -1 -15.4875 65.3301 TC 25 -15.4693 65.3504 1 5 9
1972039S13068 1972 12 SI MM EUGENIE 1972-02-10 06:00:00 TS -15.0286 65.4857 reunion main 1004 1004 O____O___OO_O_ jtwc_sh SH171972 -15.4000 65.2000 -1 -12.8000 67.2000 2 9.90000 -15.4000 65.2000 TC 25 -15.4000 65.2000 1 -12.8000 67.2000 TC 25 9 5
1972039S13068 1972 12 SI MM EUGENIE 1972-02-10 09:00:00 TS -14.6348 65.4195 main 1022 1020 P____P___PP_P_ SH171972 -15.2224 65.0025 -1 -12.8451 66.7200 2 -15.2224 65.0025 TC 25 -15.2493 64.9531 1 -12.8451 66.7200 TC 25 8 338
1972039S13068 1972 12 SI MM EUGENIE 1972-02-10 12:00:00 TS -14.3100 65.1838 reunion main 1027 1009 O____O___OP_O_ jtwc_sh SH171972 -15.0000 64.7000 -1 -12.9000 66.2000 99 9.90000 -15.0000 64.7000 TC 25 -15.0448 64.6270 1 -12.9000 66.2000 TC 25 8 313
1972039S13068 1972 12 SI MM EUGENIE 1972-02-10 15:00:00 TS -14.0746 64.8085 main 1009 978 P____P___PP_P_ SH171972 -14.8000 64.2875 -1 -12.9775 65.6149 99 -14.8000 64.2875 TC 25 -14.8179 64.2375 1 -12.9775 65.6149 TC 27 9 289
1972039S13068 1972 12 SI MM EUGENIE 1972-02-10 18:00:00 TS -14.0000 64.2800 reunion main 978 948 O____O___OO_O_ jtwc_sh SH171972 -14.6000 63.8000 -1 -13.1000 65.0000 99 9.90000 -14.6000 63.8000 TC 25 -14.6000 63.8000 1 -13.1000 65.0000 TC 30 10 277
1972039S13068 1972 12 SI MM EUGENIE 1972-02-10 21:00:00 TS -13.9421 63.7556 main 949 907 P____P___PP_P_ SH171972 -14.3849 63.3075 -1 -13.2847 64.4224 99 -14.3849 63.3075 TC 25 -14.3710 63.3180 1 -13.2847 64.4224 TC 30 11 275
1972039S13068 1972 12 SI MM EUGENIE 1972-02-11 00:00:00 TS -13.9131 63.1998 reunion main 907 867 O____O___OP_O_ jtwc_sh SH171972 -14.2000 62.8000 -1 -13.5000 63.8000 99 9.90000 -14.2000 62.8000 TC 25 -14.1656 62.7988 1 -13.5000 63.8000 TC 30 11 272
1972039S13068 1972 12 SI MM EUGENIE 1972-02-11 03:00:00 TS -13.9076 62.5781 main 867 821 P____P___PP_P_ SH171972 -14.0400 62.2774 -1 -13.7153 63.0277 99 -14.0400 62.2774 TC 30 -14.0273 62.2803 1 -13.7153 63.0277 TC 30 12 268
1972039S13068 1972 12 SI MM EUGENIE 1972-02-11 06:00:00 TS -13.9600 62.0000 reunion main 821 788 O____O___OO_O_ jtwc_sh SH171972 -14.0000 61.8000 -1 -13.9000 62.3000 2 9.90000 -14.0000 61.8000 TC 35 -14.0000 61.8000 2 -13.9000 62.3000 TC 30 10 261
1972039S13068 1972 12 SI MM EUGENIE 1972-02-11 09:00:00 TS -14.0690 61.5819 main 788 747 P____P___PP_P_ SH171972 -14.1398 61.4276 -1 -13.9695 61.8195 2 -14.1398 61.4276 TC 35 -14.1263 61.4156 2 -13.9695 61.8195 TC 30 8 248
1972039S13068 1972 12 SI MM EUGENIE 1972-02-11 12:00:00 TS -14.2728 61.2141 reunion main 747 697 O____O___OP_O_ jtwc_sh SH171972 -14.4000 61.1000 -1 -14.1000 61.4000 99 9.90000 -14.4000 61.1000 TC 35 -14.3642 61.0706 2 -14.1000 61.4000 TC 30 9 235
1972039S13068 1972 12 SI MM EUGENIE 1972-02-11 15:00:00 TS -14.6080 60.7882 main 697 648 P____P___PP_P_ SH171972 -14.6849 60.7574 -1 -14.5001 60.8431 99 -14.6849 60.7574 TC 35 -14.6701 60.7402 2 -14.5001 60.8431 TC 30 11 230
1972039S13068 1972 12 SI MM EUGENIE 1972-02-11 18:00:00 TS -14.9600 60.3600 reunion main 638 599 O____O___OO_O_ jtwc_sh SH171972 -15.0000 60.4000 -1 -14.9000 60.3000 99 9.90000 -15.0000 60.4000 TC 35 -15.0000 60.4000 2 -14.9000 60.3000 TC 30 10 234
1972039S13068 1972 12 SI MM EUGENIE 1972-02-11 21:00:00 TS -15.1789 59.9613 main 599 563 P____P___PP_P_ SH171972 -15.3000 60.0074 -1 -15.0148 59.8770 99 -15.3000 60.0074 TC 35 -15.2649 60.0379 2 -15.0148 59.8770 TC 32 9 241
1972039S13068 1972 12 SI MM EUGENIE 1972-02-12 00:00:00 TS -15.3894 59.5717 reunion main 563 517 O____O___OP_O_ jtwc_sh SH171972 -15.6000 59.6000 -1 -15.1000 59.5000 99 9.90000 -15.6000 59.6000 TC 35 -15.5469 59.6587 2 -15.1000 59.5000 TC 35 9 236
1972039S13068 1972 12 SI MM EUGENIE 1972-02-12 03:00:00 TS -15.6790 59.1819 main 517 473 P____P___PP_P_ SH171972 -15.8848 59.2147 -1 -15.3848 59.1151 99 -15.8848 59.2147 TC 35 -15.8554 59.2502 2 -15.3848 59.1151 TC 37 10 232
1972039S13068 1972 12 SI MM EUGENIE 1972-02-12 06:00:00 TS -16.0000 58.7600 reunion main 473 429 O____O___OO_O_ jtwc_sh SH171972 -16.2000 58.8000 -1 -15.7000 58.7000 3 9.90000 -16.2000 58.8000 TC 35 -16.2000 58.8000 2 -15.7000 58.7000 TC 40 11 234
1972039S13068 1972 12 SI MM EUGENIE 1972-02-12 09:00:00 TS -16.3109 58.2738 main 429 391 P____P___PP_P_ SH171972 -16.5774 58.3298 -1 -15.8851 58.1997 3 -16.5774 58.3298 TC 35 -16.6294 58.3102 2 -15.8851 58.1997 TC 42 12 236
1972039S13068 1972 12 SI MM EUGENIE 1972-02-12 12:00:00 TS -16.6574 57.7552 reunion main 380 336 O____O___OP_O_ jtwc_sh SH171972 -17.0000 57.8000 -1 -16.1000 57.7000 99 9.90000 -17.0000 57.8000 TC 35 -17.0870 57.7762 2 -16.1000 57.7000 TC 45 13 232
1972039S13068 1972 12 SI MM EUGENIE 1972-02-12 15:00:00 TS -17.0851 57.2438 main 337 300 P____P___PP_P_ SH171972 -17.4724 57.2226 -1 -16.4773 57.2850 99 -17.4724 57.2226 TC 35 -17.5261 57.2039 2 -16.4773 57.2850 TC 47 13 230
1972039S13068 1972 12 SI MM EUGENIE 1972-02-12 18:00:00 TS -17.5000 56.7200 reunion main 302 286 O____O___OO_O_ jtwc_sh SH171972 -17.9000 56.6000 -1 -16.9000 56.9000 99 9.90000 -17.9000 56.6000 TC 35 -17.9000 56.6000 2 -16.9000 56.9000 TC 50 13 234
1972039S13068 1972 12 SI MM EUGENIE 1972-02-12 21:00:00 TS -17.8219 56.1842 main 291 286 P____P___PP_P_ SH171972 -18.2023 55.9573 -1 -17.2648 56.5222 99 -18.2023 55.9573 TC 35 -18.1754 55.9620 2 -17.2648 56.5222 TC 50 12 241
1972039S13068 1972 12 SI MM EUGENIE 1972-02-13 00:00:00 TS -18.0755 55.6199 reunion main 299 299 O____O___OP_O_ jtwc_sh SH171972 -18.4000 55.3000 -1 -17.6000 56.1000 99 9.90000 -18.4000 55.3000 TC 35 -18.3777 55.2996 2 -17.6000 56.1000 TC 50 12 247
1972039S13068 1972 12 SI MM EUGENIE 1972-02-13 03:00:00 TS -18.2872 55.0104 main 303 295 P____P___PP_P_ SH171972 -18.5374 54.6349 -1 -17.9225 55.5725 99 -18.5374 54.6349 TC 35 -18.5161 54.6373 2 -17.9225 55.5725 TC 52 12 253
1972039S13068 1972 12 SI MM EUGENIE 1972-02-13 06:00:00 TS -18.4400 54.4000 reunion main 305 298 O____O___OO_O_ jtwc_sh SH171972 -18.6000 54.0000 -1 -18.2000 55.0000 4 9.90000 -18.6000 54.0000 TC 35 -18.6000 54.0000 2 -18.2000 55.0000 TC 55 11 257
1972039S13068 1972 12 SI MM EUGENIE 1972-02-13 09:00:00 TS -18.5438 53.8431 main 320 310 P____P___PP_P_ SH171972 -18.6147 53.4348 -1 -18.4222 54.4648 4 -18.6147 53.4348 TC 35 -18.6454 53.4162 2 -18.4222 54.4648 TC 52 11 261
1972039S13068 1972 12 SI MM EUGENIE 1972-02-13 12:00:00 TS -18.6088 53.2923 reunion main 340 340 O____O___OP_O_ jtwc_sh SH171972 -18.6000 52.9000 -1 -18.6000 53.9000 99 9.90000 -18.6000 52.9000 TC 35 -18.6439 52.8613 2 -18.6000 53.9000 TC 50 11 263
1972039S13068 1972 12 SI MM EUGENIE 1972-02-13 15:00:00 TS -18.6729 52.7201 main 352 300 P____P___PP_P_ SH171972 -18.5999 52.3425 -1 -18.7721 53.2950 99 -18.5999 52.3425 TC 35 -18.6205 52.3258 2 -18.7721 53.2950 TC 52 11 264
1972039S13068 1972 12 SI MM EUGENIE 1972-02-13 18:00:00 TS -18.7200 52.1200 reunion main 290 228 O____O___OO_O_ jtwc_sh SH171972 -18.6000 51.8000 -1 -18.9000 52.6000 99 9.90000 -18.6000 51.8000 TC 35 -18.6000 51.8000 2 -18.9000 52.6000 TC 55 12 266
1972039S13068 1972 12 SI MM EUGENIE 1972-02-13 21:00:00 TS -18.7490 51.4998 main 228 171 P____P___PP_P_ SH171972 -18.5922 51.2999 -1 -18.9724 51.7874 99 -18.5922 51.2999 TC 35 -18.6160 51.3245 2 -18.9724 51.7874 TC 57 12 268
1972039S13068 1972 12 SI MM EUGENIE 1972-02-14 00:00:00 TS -18.7679 50.8494 reunion main 162 104 O____O___OP_O_ jtwc_sh SH171972 -18.6000 50.8000 -1 -19.0000 50.9000 99 9.90000 -18.6000 50.8000 TC 35 -18.6396 50.8472 2 -19.0000 50.9000 TC 60 13 268
1972039S13068 1972 12 SI MM EUGENIE 1972-02-14 03:00:00 TS -18.7966 50.1733 main 104 33 P____P___PP_P_ SH171972 -18.6494 50.3026 -1 -19.0077 49.9699 99 -18.6494 50.3026 TC 35 -18.6686 50.3213 2 -19.0077 49.9699 TC 62 13 268
1972039S13068 1972 12 SI MM EUGENIE 1972-02-14 06:00:00 TS -18.8200 49.4600 reunion main 33 0 O____O___OO_O_ jtwc_sh SH171972 -18.7000 49.7000 -1 -19.0000 49.1000 4 9.90000 -18.7000 49.7000 TC 35 -18.7000 49.7000 2 -19.0000 49.1000 TC 65 14 269
1972039S13068 1972 12 SI MM EUGENIE 1972-02-14 09:00:00 TS -18.8169 48.7190 main 0 0 P____P___PP_P_ SH171972 -18.7000 48.9023 -1 -18.9916 48.4349 4 -18.7000 48.9023 TC 35 -18.7015 48.9205 2 -18.9916 48.4349 TC 67 15 270
1972039S13068 1972 12 SI MM EUGENIE 1972-02-14 12:00:00 TS -18.8212 47.9292 reunion main 0 0 O____O___OP_O_ jtwc_sh SH171972 -18.7000 48.0000 -1 -19.0000 47.8000 99 9.90000 -18.7000 48.0000 TC 35 -18.7061 48.0458 2 -19.0000 47.8000 TC 70 16 269
1972039S13068 1972 12 SI MM EUGENIE 1972-02-14 15:00:00 TS -18.8544 47.0706 main 0 0 P____P___PP_P_ SH171972 -18.7272 47.1073 -1 -19.0426 47.0076 99 -18.7272 47.1073 TC 35 -18.7325 47.1233 2 -19.0426 47.0076 TC 67 16 267
1972039S13068 1972 12 SI MM EUGENIE 1972-02-14 18:00:00 TS -18.9200 46.2000 reunion main 0 0 O____O___OO_O_ jtwc_sh SH171972 -18.8000 46.2000 -1 -19.1000 46.2000 99 9.90000 -18.8000 46.2000 TC 35 -18.8000 46.2000 2 -19.1000 46.2000 TC 65 16 265
1972039S13068 1972 12 SI MM EUGENIE 1972-02-14 21:00:00 TS -19.0013 45.3715 main 0 0 P____P___PP_P_ SH171972 -18.9273 45.2850 -1 -19.1117 45.5143 99 -18.9273 45.2850 TC 35 -18.9287 45.2590 2 -19.1117 45.5143 TC 62 16 262
1972039S13068 1972 12 SI MM EUGENIE 1972-02-15 00:00:00 TS -19.1398 44.5474 reunion main 0 0 O____O___OP_O_ jtwc_sh SH171972 -19.1000 44.4000 -1 -19.2000 44.8000 99 9.90000 -19.1000 44.4000 TC 35 -19.0991 44.3369 2 -19.2000 44.8000 TC 60 17 257
1972039S13068 1972 12 SI MM EUGENIE 1972-02-15 03:00:00 TS -19.3733 43.6547 main 62 62 P____P___PP_P_ SH171972 -19.2926 43.5251 -1 -19.4933 43.8636 99 -19.2926 43.5251 TC 35 -19.2947 43.4963 2 -19.4933 43.8636 TC 57 16 253
1972039S13068 1972 12 SI MM EUGENIE 1972-02-15 06:00:00 TS -19.6200 42.8800 reunion main 147 147 O____O___OO_O_ jtwc_sh SH171972 -19.5000 42.8000 -1 -19.8000 43.0000 3 9.90000 -19.5000 42.8000 TC 35 -19.5000 42.8000 2 -19.8000 43.0000 TC 55 13 251
1972039S13068 1972 12 SI MM EUGENIE 1972-02-15 09:00:00 TS -19.7895 42.3816 main 192 192 P____P___PP_P_ SH171972 -19.6995 42.3173 -1 -19.9293 42.4670 3 -19.6995 42.3173 TC 35 -19.6901 42.3394 2 -19.9293 42.4670 TC 52 8 248
1972039S13068 1972 12 SI MM EUGENIE 1972-02-15 12:00:00 TS -19.9378 42.0442 reunion main 222 217 O____O___OP_O_ jtwc_sh SH171972 -19.9000 42.0000 -1 -20.0000 42.1000 99 9.90000 -19.9000 42.0000 TC 35 -19.8892 42.0212 2 -20.0000 42.1000 TC 50 7 243
1972039S13068 1972 12 SI MM EUGENIE 1972-02-15 15:00:00 TS -20.0896 41.7503 main 228 228 P____P___PP_P_ SH171972 -20.0997 41.7572 -1 -20.0773 41.7348 99 -20.0997 41.7572 TC 35 -20.0939 41.7675 2 -20.0773 41.7348 TC 47 6 240
1972039S13068 1972 12 SI MM EUGENIE 1972-02-15 18:00:00 TS -20.2600 41.4600 reunion main 241 241 O____O___OO_O_ jtwc_sh SH171972 -20.3000 41.5000 -1 -20.2000 41.4000 99 9.90000 -20.3000 41.5000 TC 35 -20.3000 41.5000 2 -20.2000 41.4000 TC 45 8 238
1972039S13068 1972 12 SI MM EUGENIE 1972-02-15 21:00:00 TS -20.4836 41.0667 main 268 268 P____P___PP_P_ SH171972 -20.5001 41.0725 -1 -20.4424 41.0501 99 -20.5001 41.0725 TC 35 -20.5328 41.0881 2 -20.4424 41.0501 TC 45 9 239
1972039S13068 1972 12 SI MM EUGENIE 1972-02-16 00:00:00 TS -20.7121 40.6502 reunion main 300 300 O____O___OP_O_ jtwc_sh SH171972 -20.7000 40.6000 -1 -20.7000 40.7000 99 9.90000 -20.7000 40.6000 TC 35 -20.7604 40.6509 2 -20.7000 40.7000 TC 45 9 241
1972039S13068 1972 12 SI MM EUGENIE 1972-02-16 03:00:00 TS -20.9186 40.2387 main 342 337 P____P___PP_P_ SH171972 -20.9224 40.1851 -1 -20.8951 40.3050 99 -20.9224 40.1851 TC 35 -20.9578 40.2132 2 -20.8951 40.3050 TC 42 8 244
1972039S13068 1972 12 SI MM EUGENIE 1972-02-16 06:00:00 TS -21.0600 39.8800 reunion main 362 362 O____O___OO_O_ jtwc_sh SH171972 -21.1000 39.8000 -1 -21.0000 40.0000 3 9.90000 -21.1000 39.8000 TC 35 -21.1000 39.8000 2 -21.0000 40.0000 TC 40 6 253
1972039S13068 1972 12 SI MM EUGENIE 1972-02-16 09:00:00 TS -21.1008 39.6185 main 391 391 P____P___PP_P_ SH171972 -21.1874 39.4349 -1 -20.9799 39.9049 3 -21.1874 39.4349 TC 35 -21.1695 39.4131 2 -20.9799 39.9049 TC 40 4 268
1972039S13068 1972 12 SI MM EUGENIE 1972-02-16 12:00:00 TS -21.0765 39.4118 reunion main 406 383 O____O___OP_O_ jtwc_sh SH171972 -21.2000 39.1000 -1 -20.9000 39.9000 99 9.90000 -21.2000 39.1000 TC 35 -21.1824 39.0592 2 -20.9000 39.9000 TC 40 4 279
1972039S13068 1972 12 SI MM EUGENIE 1972-02-16 15:00:00 TS -21.0428 39.2071 main 383 367 P____P___PP_P_ SH171972 -21.1725 38.7774 -1 -20.8575 39.8650 99 -21.1725 38.7774 TC 50 -21.1540 38.7508 2 -20.8575 39.8650 TC 40 4 285
1972039S13068 1972 12 SI MM EUGENIE 1972-02-16 18:00:00 TS -20.9800 39.0200 reunion main 367 344 O____O___OO_O_ jtwc_sh SH171972 -21.1000 38.5000 -1 -20.8000 39.8000 99 9.90000 -21.1000 38.5000 TC 65 -21.1000 38.5000 2 -20.8000 39.8000 TC 40 4 293
1972039S13068 1972 12 SI MM EUGENIE 1972-02-16 21:00:00 TS -20.8914 38.8263 main 344 328 P____P___PP_P_ SH171972 -21.0000 38.2625 -1 -20.7075 39.6650 99 -21.0000 38.2625 TC 50 -21.0422 38.2767 2 -20.7075 39.6650 TC 40 4 299
1972039S13068 1972 12 SI MM EUGENIE 1972-02-17 00:00:00 TS -20.7929 38.6630 reunion main 328 305 O____O___OP_O_ jtwc_sh SH171972 -20.9000 38.1000 -1 -20.6000 39.5000 99 9.90000 -20.9000 38.1000 TC 35 -20.9646 38.1148 2 -20.6000 39.5000 TC 40 3 304
1972039S13068 1972 12 SI MM EUGENIE 1972-02-17 03:00:00 TS -20.7069 38.5371 main 305 298 P____P___PP_P_ SH171972 -20.8425 38.0050 -1 -20.4850 39.3275 99 -20.8425 38.0050 TC 50 -20.8798 38.0205 2 -20.4850 39.3275 TC 40 2 312
1972039S13068 1972 12 SI MM EUGENIE 1972-02-17 06:00:00 TS -20.6400 38.4800 reunion main 298 298 O____O___OO_O_ jtwc_sh SH171972 -20.8000 38.0000 -1 -20.4000 39.2000 3 9.90000 -20.8000 38.0000 TC 65 -20.8000 38.0000 4 -20.4000 39.2000 TC 40 1 0
1972039S13068 1972 12 SI MM EUGENIE 1972-02-17 09:00:00 TS -20.6001 38.5127 main 298 298 P____P___PP_P_ SH171972 -20.7500 38.0700 -1 -20.3850 39.1850 3 -20.7500 38.0700 TC 65 -20.7306 38.0533 4 -20.3850 39.1850 TC 40 1 58
1972039S13068 1972 12 SI MM EUGENIE 1972-02-17 12:00:00 TS -20.5740 38.5951 reunion main 306 306 O____O___OP_O_ jtwc_sh SH171972 -20.7000 38.2000 -1 -20.4000 39.2000 99 9.90000 -20.7000 38.2000 TC 65 -20.6701 38.1753 4 -20.4000 39.2000 TC 40 2 68
1972039S13068 1972 12 SI MM EUGENIE 1972-02-17 15:00:00 TS -20.5419 38.6699 main 308 308 P____P___PP_P_ SH171972 -20.6425 38.3500 -1 -20.4000 39.1575 99 -20.6425 38.3500 TC 65 -20.6244 38.3345 4 -20.4000 39.1575 TC 40 1 69
1972039S13068 1972 12 SI MM EUGENIE 1972-02-17 18:00:00 TS -20.5200 38.7400 reunion main 308 308 O____O___OO_O_ jtwc_sh SH171972 -20.6000 38.5000 -1 -20.4000 39.1000 99 9.90000 -20.6000 38.5000 TC 65 -20.6000 38.5000 4 -20.4000 39.1000 TC 40 1 75
1972039S13068 1972 12 SI MM EUGENIE 1972-02-17 21:00:00 TS -20.5106 38.7915 main 317 317 P____P___PP_P_ SH171972 -20.5850 38.6000 -1 -20.4000 39.0500 99 -20.5850 38.6000 TC 65 -20.5832 38.6574 4 -20.4000 39.0500 TC 40 1 89
1972039S13068 1972 12 SI MM EUGENIE 1972-02-18 00:00:00 TS -20.5180 38.8420 reunion main 317 317 O____O___OP_O_ jtwc_sh SH171972 -20.6000 38.7000 -1 -20.4000 39.0000 99 9.90000 -20.6000 38.7000 TC 65 -20.5901 38.8098 4 -20.4000 39.0000 TC 40 1 97
1972039S13068 1972 12 SI MM EUGENIE 1972-02-18 03:00:00 TS -20.5244 38.9124 main 325 325 P____P___PP_P_ SH171972 -20.6350 38.8650 -1 -20.3625 38.9500 99 -20.6350 38.8650 TC 65 -20.6269 38.9323 4 -20.3625 38.9500 TC 42 1 120
1972039S13068 1972 12 SI MM EUGENIE 1972-02-18 06:00:00 TS -20.5800 38.9600 reunion main 340 340 O____O___OO_O_ jtwc_sh SH171972 -20.7000 39.0000 -1 -20.4000 38.9000 3 9.90000 -20.7000 39.0000 TC 65 -20.7000 39.0000 4 -20.4000 38.9000 TC 45 2 171
1972039S13068 1972 12 SI MM EUGENIE 1972-02-18 09:00:00 TS -20.7199 38.9629 main 346 345 P____P___PP_P_ SH171972 -20.7775 39.0449 -1 -20.6275 38.8650 3 -20.7775 39.0449 TC 65 -20.7896 38.9946 4 -20.6275 38.8650 TC 47 3 190
1972039S13068 1972 12 SI MM EUGENIE 1972-02-18 12:00:00 TS -20.9035 38.9065 reunion main 352 351 O____O___OP_O_ jtwc_sh SH171972 -20.9000 39.0000 -1 -20.9000 38.8000 99 9.90000 -20.9000 39.0000 TC 65 -20.9174 38.9323 4 -20.9000 38.8000 TC 50 4 207
1972039S13068 1972 12 SI MM EUGENIE 1972-02-18 15:00:00 TS -21.0653 38.7718 main 358 339 P____P___PP_P_ SH171972 -21.0700 38.8725 -1 -21.0501 38.6425 99 -21.0700 38.8725 TC 65 -21.0865 38.8289 4 -21.0501 38.6425 TC 52 4 217
1972039S13068 1972 12 SI MM EUGENIE 1972-02-18 18:00:00 TS -21.2600 38.6200 reunion main 335 319 O____O___OO_O_ jtwc_sh SH171972 -21.3000 38.7000 -1 -21.2000 38.5000 99 9.90000 -21.3000 38.7000 TC 65 -21.3000 38.7000 4 -21.2000 38.5000 TC 55 5 206
1972039S13068 1972 12 SI MM EUGENIE 1972-02-18 21:00:00 TS -21.5335 38.5273 main 319 302 P____P___PP_P_ SH171972 -21.5850 38.5500 -1 -21.4500 38.4924 99 -21.5850 38.5500 TC 65 -21.5976 38.5519 4 -21.4500 38.4924 TC 57 6 197
1972039S13068 1972 12 SI MM EUGENIE 1972-02-19 00:00:00 TS -21.8260 38.4372 reunion main 302 288 O____O___OP_O_ jtwc_sh SH171972 -21.9000 38.4000 -1 -21.7000 38.5000 99 9.90000 -21.9000 38.4000 TC 65 -21.9302 38.3859 4 -21.7000 38.5000 TC 60 6 200
1972039S13068 1972 12 SI MM EUGENIE 1972-02-19 03:00:00 TS -22.0965 38.3054 main 288 275 P____P___PP_P_ SH171972 -22.2375 38.2351 -1 -21.8800 38.4151 99 -22.2375 38.2351 TC 65 -22.2476 38.2269 4 -21.8800 38.4151 TC 62 5 207
1972039S13068 1972 12 SI MM EUGENIE 1972-02-19 06:00:00 TS -22.3000 38.1800 reunion main 275 262 O____O___OO_O_ jtwc_sh SH171972 -22.5000 38.1000 -1 -22.0000 38.3000 4 9.90000 -22.5000 38.1000 TC 65 -22.5000 38.1000 4 -22.0000 38.3000 TC 65 3 214
1972039S13068 1972 12 SI MM EUGENIE 1972-02-19 09:00:00 TS -22.3837 38.0941 main 262 252 P____P___PP_P_ SH171972 -22.5875 38.0274 -1 -22.0650 38.1925 4 -22.5875 38.0274 TC 65 -22.6137 38.0306 4 -22.0650 38.1925 TC 67 2 230
1972039S13068 1972 12 SI MM EUGENIE 1972-02-19 12:00:00 TS -22.4120 38.0394 reunion main 252 252 O____O___OP_O_ jtwc_sh SH171972 -22.6000 38.0000 -1 -22.1000 38.1000 99 9.90000 -22.6000 38.0000 TC 65 -22.6599 37.9971 4 -22.1000 38.1000 TC 70 1 231
1972039S13068 1972 12 SI MM EUGENIE 1972-02-19 15:00:00 TS -22.4492 38.0120 main 252 250 P____P___PP_P_ SH171972 -22.6425 37.9850 -1 -22.1425 38.0500 99 -22.6425 37.9850 TC 65 -22.6762 37.9901 4 -22.1425 38.0500 TC 72 1 205
1972039S13068 1972 12 SI MM EUGENIE 1972-02-19 18:00:00 TS -22.5000 38.0000 reunion main 250 248 O____O___OO_O_ jtwc_sh SH171972 -22.7000 38.0000 -1 -22.2000 38.0000 99 9.90000 -22.7000 38.0000 TC 65 -22.7000 38.0000 4 -22.2000 38.0000 TC 75 1 0
1972039S13068 1972 12 SI MM EUGENIE 1972-02-19 21:00:00 TS -22.5941 37.9946 main 248 246 P____P___PP_P_ SH171972 -22.7925 38.0500 -1 -22.3000 37.9150 99 -22.7925 38.0500 TC 65 -22.7856 38.0429 4 -22.3000 37.9150 TC 75 2 185
1972039S13068 1972 12 SI MM EUGENIE 1972-02-20 00:00:00 TS -22.6970 37.9789 reunion main 246 235 O____O___OP_O_ jtwc_sh SH171972 -22.9000 38.1000 -1 -22.4000 37.8000 99 9.90000 -22.9000 38.1000 TC 65 -22.8849 38.0947 4 -22.4000 37.8000 TC 75 2 192
1972039S13068 1972 12 SI MM EUGENIE 1972-02-20 03:00:00 TS -22.7753 37.9458 main 235 235 P____P___PP_P_ SH171972 -23.0000 38.1300 -1 -22.4425 37.6724 99 -23.0000 38.1300 TC 65 -22.9918 38.1241 4 -22.4425 37.6724 TC 75 2 215
1972039S13068 1972 12 SI MM EUGENIE 1972-02-20 06:00:00 TS -22.8600 37.8600 reunion main 235 215 O____O___OO_O_ jtwc_sh SH171972 -23.1000 38.1000 -1 -22.5000 37.5000 4 9.90000 -23.1000 38.1000 TC 65 -23.1000 38.1000 4 -22.5000 37.5000 TC 75 3 227
1972039S13068 1972 12 SI MM EUGENIE 1972-02-20 09:00:00 TS -22.9854 37.7030 main 215 195 P____P___PP_P_ SH171972 -23.2000 37.9800 -1 -22.6574 37.2802 4 -23.2000 37.9800 TC 65 -23.2122 37.9949 4 -22.6574 37.2802 TC 72 4 235
1972039S13068 1972 12 SI MM EUGENIE 1972-02-20 12:00:00 TS -23.1045 37.4866 reunion main 195 167 O____O___OP_O_ jtwc_sh SH171972 -23.3000 37.8000 -1 -22.8000 37.0000 99 9.90000 -23.3000 37.8000 TC 65 -23.3225 37.8328 4 -22.8000 37.0000 TC 70 5 247
1972039S13068 1972 12 SI MM EUGENIE 1972-02-20 15:00:00 TS -23.1733 37.2318 main 167 147 P____P___PP_P_ SH171972 -23.4075 37.6150 -1 -22.8151 36.6498 99 -23.4075 37.6150 TC 65 -23.4215 37.6293 4 -22.8151 36.6498 TC 65 5 257
1972039S13068 1972 12 SI MM EUGENIE 1972-02-20 18:00:00 TS -23.2200 36.9600 reunion main 147 121 O____O___OO_O_ jtwc_sh SH171972 -23.5000 37.4000 -1 -22.8000 36.3000 99 9.90000 -23.5000 37.4000 TC 65 -23.5000 37.4000 4 -22.8000 36.3000 TC 60 5 258
1972039S13068 1972 12 SI MM EUGENIE 1972-02-20 21:00:00 TS -23.2705 36.7139 main 121 102 P____P___PP_P_ SH171972 -23.5650 37.1575 -1 -22.8498 36.0575 99 -23.5650 37.1575 TC 65 -23.5306 37.1469 4 -22.8423 36.0500 TC 55 4 251
1972039S13068 1972 12 SI MM EUGENIE 1972-02-21 00:00:00 TS -23.3540 36.5283 reunion main 104 84 O____O___OP_O_ jtwc_sh SH171972 -23.6000 36.9000 -1 -22.9000 35.8000 99 9.90000 -23.6000 36.9000 TC 65 -23.5429 36.8771 4 -22.9000 35.8000 TC 50 4 247
1972039S13068 1972 12 SI MM EUGENIE 1972-02-21 03:00:00 TS -23.4191 36.3359 main 84 78 P____P___PP_P_ SH171972 -23.5925 36.6349 -1 -22.9129 35.4349 99 -23.5925 36.6349 TC 65 -23.5587 36.6188 4 -22.9528 35.4750 TC 42 3 242
1972039S13068 1972 12 SI MM EUGENIE 1972-02-21 06:00:00 TS -23.5071 36.2071 reunion main 78 74 O____O___OO_O_ jtwc_sh SH171972 -23.6000 36.4000 -1 -22.9000 35.0000 6 9.90000 -23.6000 36.4000 TC 65 -23.6000 36.4000 4 -23.0000 35.1000 TC 35 3 200
1972039S13068 1972 12 SI MM EUGENIE 1972-02-21 09:00:00 TS -23.6794 36.2271 main 74 62 P________PP___ SH171972 -23.6775 36.2200 -1 6 -23.6775 36.2200 TC 50 -23.6832 36.2411 4 TC 3 197
1972039S13068 1972 12 SI MM EUGENIE 1972-02-21 12:00:00 TS -23.8007 36.1109 main 62 50 O________OP___ jtwc_sh SH171972 -23.8000 36.1000 -1 -23.8000 36.1000 TC 35 -23.8022 36.1328 4 3 212
1972039S13068 1972 12 SI MM EUGENIE 1972-02-21 15:00:00 TS -23.9451 36.0427 main 50 50 P________PP___ SH171972 -23.9450 36.0350 -1 -23.9450 36.0350 TC 30 -23.9451 36.0580 4 3 199
1972039S13068 1972 12 SI MM EUGENIE 1972-02-21 18:00:00 TS -24.1000 36.0000 main 50 O________OO___ jtwc_sh SH171972 -24.1000 36.0000 -1 -24.1000 36.0000 TC 25 -24.1000 36.0000 7 3 192

IBTrACS Databaseについて

本データベースは、米国NOAAが公開する1842年以降の世界の熱帯低気圧のベストトラックデータアーカイブInternational Best Track Archive for Climate Stewardship (IBTrACS)を、ウェブで閲覧しやすい形式に変換したものです。

最終更新日:2021-12-03